dinsdag 26 mei 2020 | Home | Bestenlijsten | Bestenlijsten NL | Calculators | Nieuws | Records | Uitslagen | VZA Ranglijsten | Weer |
 
Recent nieuws meer nieuws
19-05: Snelheid een relatief begrip?
06-05: Mag huidig niveau hardlopen zomaar vergeleken worden met dat van de jaren 70?
28-04: Ook na 1 juni Run your own race
24-04: Zeeuws record 15 km van John Vermeule meest kansrijk om ooit te worden verbroken
21-04: Kunnen we na 1 juni stoppen met Run your own race?
16-04: Comeback van John Vermeule in 1993?
 
Zoek tenminste met 3 tekens van wedstrijd, datum, plaats of atleet

3e Hoek Run

Hoek, woensdag 12 juni 2019 - Organisatie: d'Oekse Feesten
12.28 km
PltsNaam
Tijdkm/umin/kmm/secgap
1  Sander PostTerneuzen41.49minM35   17.620  3:244.89-
2  Francesco de GrootHamme43.11minMse   17.062  3:314.74+1:22
3  Edwin de la RuelleKoewacht45.46minM50   16.099  3:444.47+3:57
4  Erwin van de BroekeAxel45.50minMse   16.076  3:444.47+4:01
5  Marnix van den BrandeTerneuzen46.14minMse   15.937  3:464.43+4:25
6  Jordy LeenknechtHulst46.54minM35   15.710  3:494.36+5:05
7  Jeroen van den BroekeTerneuzen47.55minMse   15.377  3:544.27+6:06
8  Christiaan de MeyerPhilippine47.57minMse   15.366  3:544.27+6:08
9  Stefan van de BroekeAxel48.09minMse   15.302  3:554.25+6:20
10  Robert VroonBreskens48.29minM50   15.197  3:574.22+6:40
11  Christophe DurrisZaamslag53.52minMse   13.678  4:233.80+12:03
12  Coen DekkerZaamslag53.57minMse   13.657  4:243.79+12:08
13  Evelien de VisserIJzendijke54.00minVse   13.644  4:243.79+12:11
14  Jaap van der VeenTerneuzen54.06minM50   13.619  4:243.78+12:17
15  Sjakkie van den BroekeHoek54.31minM50   13.515  4:263.75+12:42
16  Wim Willems55.08minMse   13.364  4:293.71+13:19
17  Erik HerreboutHoek55.32minMse   13.268  4:313.69+13:43
18  David Mullaert55.53minMse   13.185  4:333.66+14:04
19  Martin de JaegerTerneuzen56.07minMse   13.130  4:343.65+14:18
20  Gino DhanisSint Jansteen57.05minM55   12.907  4:393.59+15:16
21  Berry KnibbelerWestdorpe57.35minM55   12.795  4:413.55+15:46
22  Paul HaertjensBoekhoute58.11minMse   12.663  4:443.52+16:22
23  Bart CorstanjeHoek58.23minMse   12.620  4:453.51+16:34
24  Frank VerschorreBreskens58.26minMse   12.609  4:463.50+16:37
25  Melissa ten KateTerneuzen58.33minVse   12.584  4:463.50+16:44
26  Felix HeidbuchelSchwabisch Gwind1.02.01minMse   11.881  5:033.30+20:12
27  Hans MinnaardYerseke1.03.09minM55   11.667  5:093.24+21:20
28  Wendy van de VeldeHoofdplaat1.04.37minVse   11.403  5:163.17+22:48
29  Imo JongepierNieuw- en Sint Joosland1.04.39minM65   11.397  5:163.17+22:50
30  Ineke van MorrelgemSluis1.05.00minVse   11.335  5:183.15+23:11
31  Chris de KoeVlissingen1.08.19minM70   10.785  5:343.00+26:30
Mannen: 27 (87.1%) => M35=2 - M50=4 - M55=3 - M65=1 - M70=1 - Mse=16
Vrouwen: 4 (12.9%) => Vse=4

Overzicht Top3, winnares en aantal deelnemers van aanwezige edities

JaarWinnaarTijd2eTijd 3eTijdWinnaresTijd#

12.28 km

2019Sander Post41:49Francesco de Groot43:11Edwin de la Ruelle45:46Evelien de Visser54:0031

12.27 km

2018Sander Post42:40Wim van Sparrentak45:15Jordy Leenknecht48:06Liselot Hemelsoet59:0618
2017Sander Post43:32Erwin van den Broeke46:41Pieter Pladdet50:38Thea de Blaeij1:03:4311
8.18 km
PltsNaam
Tijdkm/umin/kmm/secgap
1  Bert van de VeldeBassevelde27.46minMse   17.676  3:244.91-
2  Gino van BroeckTemse29.23minMse   16.703  3:364.64+1:37
3  Tim BuysseAssenede29.48minMse   16.470  3:394.57+2:02
4  Thomas WulffraatTerneuzen30.30minMse   16.092  3:444.47+2:44
5  Erwin van CauwenbergheSinaai31.32minMse   15.564  3:514.32+3:46
6  Patrick van MorrelgemSluis31.40minMse   15.499  3:524.31+3:54
7  Menno den DekkerTerneuzen32.09minMse   15.266  3:564.24+4:23
8  Martijn Doolaege34.06minMse   14.393  4:104.00+6:20
9  William BollemanAxel35.21minMse   13.884  4:193.86+7:35
10  Maurice SteketeeMiddelburg35.24minM35   13.864  4:203.85+7:38
11  Tony JanseKapelle-Biezelinge36.01minMse   13.627  4:243.79+8:15
12  Dwight van HulleIJzendijke36.22minMse   13.496  4:273.75+8:36
13  Kevin de SmetTerneuzen37.25minMse   13.117  4:343.64+9:39
14  Douwe WortmanAxel37.47minMse   12.990  4:373.61+10:01
15  Tiande Donker CortiusMiddelburg37.59minVse   12.921  4:393.59+10:13
16  Dimitri DekkerHoek38.01minMse   12.910  4:393.59+10:15
17  Piet BeijerMiddelburg40.09minM70   12.224  4:543.40+12:23
18  Arthur StijnsOudelande41.12minM70   11.913  5:023.31+13:26
19  Rik DielemanHoek42.08minMse   11.649  5:093.24+14:22
20  Kim GijselSinaai42.14minVse   11.621  5:103.23+14:28
21  Matthieu VerleeSinaai42.16minMse   11.612  5:103.23+14:30
22  MariĆ«lle LauretTerneuzen42.52minVse   11.449  5:143.18+15:06
23  Ilja TollenaarKloosterzande43.36minVse   11.257  5:203.13+15:50
24  Rudy van de VeldeWachtebeke43.56minMse   11.171  5:223.10+16:10
25  Angela de PutterTerneuzen44.03minVse   11.142  5:233.09+16:17
26  Patrick de KoningHoek44.04minMse   11.138  5:233.09+16:18
27  Marja HofmanTerneuzen44.52minVse   10.939  5:293.04+17:06
28  Kris CornelisHoek48.25minMse   10.137  5:552.82+20:39
29  Antoine HaersVogelwaarde49.14minMse   9.969  6:012.77+21:28
30  Tom DielemanHoek1.02.19minMse   7.876  7:372.19+34:33
Mannen: 24 (80%) => M35=1 - M70=2 - Mse=21
Vrouwen: 6 (20%) => Vse=6

Snelheid en tempo zijn berekend op de vermelde afstand. Bij een onjuiste afstand wijken deze uiteraard af!

Fouten melden via info@atletiekzeeland.nl Categorie fout? Mail dan geboortedatum. (geldt alleen voor Zeeuwen)

De server had 0.119 seconden nodig om deze lijst met 61 prestaties samen te stellen.

Terug naar boven


 
Atletiek Zeeland © 2020